Time;durP1;ratioP1;P1;durP2;ratioP2;P2;SDS_P1;SDS_P2;PMS_P1;PMS_P2;Temp;Humidity;BMP_temperature;BMP_pressure;BME280_temperature;BME280_humidity;BME280_pressure;Samples;Min_cycle;Max_cycle;Signal;HPM_P1;HPM_P2
2023/01/08 00:00:51;;;;;;;82.87;52.90;;;;;;;;;;6277070;22;20074;-67
2023/01/08 00:03:17;;;;;;;83.97;53.45;;;;;;;;;;6276738;22;20000;-68
2023/01/08 00:05:43;;;;;;;79.83;52.07;;;;;;;;;;6276649;22;20007;-67
2023/01/08 00:08:09;;;;;;;81.53;52.20;;;;;;;;;;6276532;22;20489;-67
2023/01/08 00:10:36;;;;;;;87.93;55.00;;;;;;;;;;6276866;22;20300;-67
2023/01/08 00:13:02;;;;;;;86.93;53.83;;;;;;;;;;6276737;22;20493;-67
2023/01/08 00:15:29;;;;;;;82.35;50.35;;;;;;;;;;6277028;22;20038;-67
2023/01/08 00:17:55;;;;;;;83.18;52.25;;;;;;;;;;6276654;22;20003;-68
2023/01/08 00:20:21;;;;;;;82.35;52.05;;;;;;;;;;6276392;22;20004;-67
2023/01/08 00:22:48;;;;;;;82.88;52.08;;;;;;;;;;6276710;22;20075;-67
2023/01/08 00:25:14;;;;;;;83.03;52.10;;;;;;;;;;6276654;22;20405;-67
2023/01/08 00:27:40;;;;;;;80.10;51.70;;;;;;;;;;6276489;22;20427;-68
2023/01/08 00:30:06;;;;;;;81.30;52.08;;;;;;;;;;6276417;22;20015;-67
2023/01/08 00:32:32;;;;;;;82.22;49.88;;;;;;;;;;6276499;22;20430;-67
2023/01/08 00:35:00;;;;;;;84.33;51.30;;;;;;;;;;6276573;22;20011;-68
2023/01/08 00:37:26;;;;;;;81.07;49.42;;;;;;;;;;6277238;22;19995;-67
2023/01/08 00:39:52;;;;;;;80.85;50.78;;;;;;;;;;6276720;22;20012;-67
2023/01/08 00:42:18;;;;;;;82.32;51.35;;;;;;;;;;6276473;22;20041;-68
2023/01/08 00:44:44;;;;;;;82.95;50.45;;;;;;;;;;6276408;22;20015;-66
2023/01/08 00:47:10;;;;;;;83.50;50.65;;;;;;;;;;6276367;22;20002;-67
2023/01/08 00:49:36;;;;;;;81.55;49.63;;;;;;;;;;6276816;22;20376;-66
2023/01/08 00:52:03;;;;;;;82.30;50.10;;;;;;;;;;6249492;22;20004;-67
2023/01/08 00:54:29;;;;;;;81.53;49.93;;;;;;;;;;6276535;22;20010;-68
2023/01/08 00:56:55;;;;;;;83.60;50.43;;;;;;;;;;6276299;22;20007;-68
2023/01/08 00:59:21;;;;;;;82.37;51.70;;;;;;;;;;6276127;22;19999;-67
2023/01/08 01:01:47;;;;;;;84.68;49.63;;;;;;;;;;6276681;22;20002;-68
2023/01/08 01:04:14;;;;;;;78.00;47.63;;;;;;;;;;6276296;22;20012;-67
2023/01/08 01:06:40;;;;;;;86.10;51.17;;;;;;;;;;6276060;22;20430;-67
2023/01/08 01:09:07;;;;;;;84.73;49.47;;;;;;;;;;6276232;22;20000;-67
2023/01/08 01:11:33;;;;;;;83.80;49.97;;;;;;;;;;6276186;22;20022;-67
2023/01/08 01:13:59;;;;;;;89.93;52.50;;;;;;;;;;6275938;22;20023;-67
2023/01/08 01:16:25;;;;;;;83.90;48.47;;;;;;;;;;6276056;22;20000;-67
2023/01/08 01:18:52;;;;;;;80.87;51.20;;;;;;;;;;6275829;22;20004;-67
2023/01/08 01:21:23;;;;;;;85.10;52.43;;;;;;;;;;6276049;22;20007;-67
2023/01/08 01:23:49;;;;;;;82.33;52.33;;;;;;;;;;6276176;22;20449;-67
2023/01/08 01:26:19;;;;;;;85.63;50.50;;;;;;;;;;6276160;22;20007;-66
2023/01/08 01:28:49;;;;;;;84.83;51.67;;;;;;;;;;6276108;22;20012;-67
2023/01/08 01:31:15;;;;;;;86.80;52.17;;;;;;;;;;6276179;22;20003;-67
2023/01/08 01:33:42;;;;;;;85.75;52.90;;;;;;;;;;6276511;22;19996;-67
2023/01/08 01:36:09;;;;;;;84.67;51.43;;;;;;;;;;6276127;22;20011;-66
2023/01/08 01:38:35;;;;;;;82.23;51.37;;;;;;;;;;6276179;22;20353;-66
2023/01/08 01:41:01;;;;;;;82.53;51.33;;;;;;;;;;6276069;22;20004;-67
2023/01/08 01:43:40;;;;;;;87.20;54.40;;;;;;;;;;6276082;22;20002;-66
2023/01/08 01:46:18;;;;;;;98.53;57.30;;;;;;;;;;6248975;22;20091;-67
2023/01/08 01:48:44;;;;;;;89.00;54.50;;;;;;;;;;6276147;22;20476;-67
2023/01/08 01:51:10;;;;;;;93.00;53.70;;;;;;;;;;6276054;22;20000;-67
2023/01/08 01:53:37;;;;;;;85.70;53.37;;;;;;;;;;6249065;22;20063;-67
2023/01/08 01:56:03;;;;;;;89.07;53.37;;;;;;;;;;6276082;22;20057;-66
2023/01/08 01:58:30;;;;;;;86.10;53.27;;;;;;;;;;6273768;22;20012;-67
2023/01/08 02:00:58;;;;;;;83.90;51.47;;;;;;;;;;6272507;22;20006;-67
2023/01/08 02:03:25;;;;;;;84.05;51.30;;;;;;;;;;6272118;22;20000;-67
2023/01/08 02:05:57;;;;;;;88.40;52.63;;;;;;;;;;6275244;22;20011;-67
2023/01/08 02:08:39;;;;;;;78.72;51.50;;;;;;;;;;6275975;22;20004;-68
2023/01/08 02:11:07;;;;;;;82.97;51.43;;;;;;;;;;6277103;22;20003;-67
2023/01/08 02:13:36;;;;;;;83.93;53.80;;;;;;;;;;6277134;22;20023;-67
2023/01/08 02:16:24;;;;;;;92.97;55.30;;;;;;;;;;6277951;22;20007;-67
2023/01/08 02:18:54;;;;;;;84.93;51.10;;;;;;;;;;6277962;22;20059;-67
2023/01/08 02:21:30;;;;;;;84.63;53.20;;;;;;;;;;6277339;22;20018;-67
2023/01/08 02:24:00;;;;;;;85.73;52.93;;;;;;;;;;6277426;22;20019;-67
2023/01/08 02:26:27;;;;;;;86.63;52.03;;;;;;;;;;6277736;22;19995;-67
2023/01/08 02:28:56;;;;;;;86.33;51.07;;;;;;;;;;6277417;22;20031;-67
2023/01/08 02:31:23;;;;;;;88.40;53.35;;;;;;;;;;6277679;22;20006;-68
2023/01/08 02:33:49;;;;;;;88.63;55.10;;;;;;;;;;6277777;22;20004;-67
2023/01/08 02:36:17;;;;;;;84.50;52.00;;;;;;;;;;6277409;22;20079;-66
2023/01/08 02:38:57;;;;;;;85.67;52.80;;;;;;;;;;6277327;22;19996;-67
2023/01/08 02:41:27;;;;;;;82.10;52.30;;;;;;;;;;6250405;22;20004;-66
2023/01/08 02:43:54;;;;;;;88.27;54.20;;;;;;;;;;6276701;22;20004;-66
2023/01/08 02:46:25;;;;;;;88.40;54.03;;;;;;;;;;6277576;22;20082;-67
2023/01/08 02:48:54;;;;;;;89.70;54.17;;;;;;;;;;6277712;22;20004;-67
2023/01/08 02:51:23;;;;;;;91.00;55.47;;;;;;;;;;6277448;22;20004;-67
2023/01/08 02:53:51;;;;;;;87.13;54.33;;;;;;;;;;6277818;22;20007;-67
2023/01/08 02:56:22;;;;;;;89.00;54.37;;;;;;;;;;6277490;22;20426;-67
2023/01/08 02:58:48;;;;;;;94.87;56.63;;;;;;;;;;6277471;22;20000;-67
2023/01/08 03:01:15;;;;;;;88.27;54.77;;;;;;;;;;6277012;22;20422;-67
2023/01/08 03:03:43;;;;;;;90.87;54.70;;;;;;;;;;6277222;22;20004;-67
2023/01/08 03:06:14;;;;;;;87.33;55.53;;;;;;;;;;6277461;22;20054;-68
2023/01/08 03:08:42;;;;;;;85.00;53.43;;;;;;;;;;6277697;22;20078;-69
2023/01/08 03:11:11;;;;;;;88.57;54.00;;;;;;;;;;6277500;22;20415;-67
2023/01/08 03:13:39;;;;;;;91.90;55.90;;;;;;;;;;6277249;22;20023;-67
2023/01/08 03:16:09;;;;;;;87.93;55.20;;;;;;;;;;6277771;22;20007;-66
2023/01/08 03:18:37;;;;;;;94.03;55.27;;;;;;;;;;6277393;22;20069;-67
2023/01/08 03:21:05;;;;;;;87.17;55.70;;;;;;;;;;6277256;22;20003;-67
2023/01/08 03:23:33;;;;;;;88.10;53.60;;;;;;;;;;6277154;22;19995;-66
2023/01/08 03:26:00;;;;;;;86.57;55.67;;;;;;;;;;6277287;22;20057;-68
2023/01/08 03:28:29;;;;;;;87.67;54.67;;;;;;;;;;6277155;22;20016;-67
2023/01/08 03:30:56;;;;;;;90.73;54.83;;;;;;;;;;6277343;22;20004;-68
2023/01/08 03:33:23;;;;;;;87.87;54.67;;;;;;;;;;6277178;22;20003;-68
2023/01/08 03:35:50;;;;;;;98.13;55.70;;;;;;;;;;6250251;22;20434;-68
2023/01/08 03:38:25;;;;;;;90.80;55.70;;;;;;;;;;6276821;22;19996;-68
2023/01/08 03:40:53;;;;;;;88.47;57.87;;;;;;;;;;6276919;22;19999;-67
2023/01/08 03:43:19;;;;;;;88.90;55.60;;;;;;;;;;6277172;22;20003;-67
2023/01/08 03:45:48;;;;;;;90.00;53.33;;;;;;;;;;6276991;22;20427;-67
2023/01/08 03:48:15;;;;;;;83.53;54.07;;;;;;;;;;6276944;22;20094;-67
2023/01/08 03:50:41;;;;;;;83.57;53.70;;;;;;;;;;6276493;22;20074;-67
2023/01/08 03:53:08;;;;;;;94.60;54.67;;;;;;;;;;6276876;22;20377;-68
2023/01/08 03:55:34;;;;;;;87.97;54.13;;;;;;;;;;6276730;22;20003;-67
2023/01/08 03:58:00;;;;;;;86.47;52.30;;;;;;;;;;6276935;22;20022;-67
2023/01/08 04:00:26;;;;;;;87.10;53.23;;;;;;;;;;6276686;22;20057;-68
2023/01/08 04:02:52;;;;;;;87.47;52.87;;;;;;;;;;6276889;22;20078;-68
2023/01/08 04:05:18;;;;;;;87.83;53.87;;;;;;;;;;6276595;22;20015;-68
2023/01/08 04:07:44;;;;;;;89.60;53.93;;;;;;;;;;6249702;22;20028;-67
2023/01/08 04:10:10;;;;;;;84.53;51.53;;;;;;;;;;6276854;22;20006;-67
2023/01/08 04:12:36;;;;;;;83.53;52.23;;;;;;;;;;6276753;22;20557;-67
2023/01/08 04:15:02;;;;;;;86.27;53.67;;;;;;;;;;6276909;22;20446;-68
2023/01/08 04:17:28;;;;;;;90.27;53.77;;;;;;;;;;6276638;22;20004;-67
2023/01/08 04:19:55;;;;;;;88.03;53.03;;;;;;;;;;6276801;22;20010;-68
2023/01/08 04:22:21;;;;;;;90.13;53.90;;;;;;;;;;6276394;22;20000;-67
2023/01/08 04:24:47;;;;;;;90.83;53.97;;;;;;;;;;6276343;22;20012;-69
2023/01/08 04:27:13;;;;;;;90.77;54.37;;;;;;;;;;6276579;22;20327;-68
2023/01/08 04:29:39;;;;;;;92.73;55.43;;;;;;;;;;6276426;22;20065;-68
2023/01/08 04:32:05;;;;;;;92.17;55.67;;;;;;;;;;6275945;22;20022;-68
2023/01/08 04:34:31;;;;;;;93.00;55.50;;;;;;;;;;6276427;22;19996;-67
2023/01/08 04:36:57;;;;;;;88.00;52.93;;;;;;;;;;6276661;22;20319;-68
2023/01/08 04:39:23;;;;;;;94.03;55.90;;;;;;;;;;6276640;22;20073;-66
2023/01/08 04:41:49;;;;;;;96.70;58.77;;;;;;;;;;6276601;22;20004;-67
2023/01/08 04:44:15;;;;;;;92.10;55.43;;;;;;;;;;6276535;22;20066;-68
2023/01/08 04:46:41;;;;;;;91.10;56.57;;;;;;;;;;6276661;22;19999;-67
2023/01/08 04:49:07;;;;;;;86.60;54.43;;;;;;;;;;6276458;22;20078;-67
2023/01/08 04:51:33;;;;;;;88.87;54.80;;;;;;;;;;6276635;22;20026;-69
2023/01/08 04:53:59;;;;;;;96.23;55.57;;;;;;;;;;6276422;22;20240;-67
2023/01/08 04:56:25;;;;;;;84.97;54.63;;;;;;;;;;6276557;22;20021;-67
2023/01/08 04:58:51;;;;;;;85.43;52.57;;;;;;;;;;6276483;22;20441;-67
2023/01/08 05:01:24;;;;;;;86.57;52.47;;;;;;;;;;6276254;22;20027;-67
2023/01/08 05:03:57;;;;;;;84.22;53.13;;;;;;;;;;6276161;22;20376;-68
2023/01/08 05:06:23;;;;;;;89.43;53.47;;;;;;;;;;6276418;22;20026;-68
2023/01/08 05:08:49;;;;;;;91.67;54.43;;;;;;;;;;6276366;22;20011;-67
2023/01/08 05:11:15;;;;;;;86.53;52.80;;;;;;;;;;6276245;22;20011;-67
2023/01/08 05:13:41;;;;;;;88.53;53.47;;;;;;;;;;6276236;22;20003;-67
2023/01/08 05:16:07;;;;;;;86.57;54.80;;;;;;;;;;6276137;22;20463;-67
2023/01/08 05:18:34;;;;;;;92.57;54.70;;;;;;;;;;6276203;22;20014;-68
2023/01/08 05:21:01;;;;;;;96.33;55.63;;;;;;;;;;6275949;22;19999;-69
2023/01/08 05:23:27;;;;;;;90.87;54.07;;;;;;;;;;6276362;22;19996;-67
2023/01/08 05:25:56;;;;;;;88.53;55.57;;;;;;;;;;6276138;22;20008;-67
2023/01/08 05:28:22;;;;;;;90.57;56.00;;;;;;;;;;6275658;22;20019;-67
2023/01/08 05:30:49;;;;;;;96.60;58.53;;;;;;;;;;6276075;22;20071;-68
2023/01/08 05:33:15;;;;;;;92.43;55.90;;;;;;;;;;6248559;22;20011;-69
2023/01/08 05:35:41;;;;;;;96.73;57.10;;;;;;;;;;6275765;22;20074;-67
2023/01/08 05:38:07;;;;;;;93.13;54.70;;;;;;;;;;6276171;22;19996;-67
2023/01/08 05:40:33;;;;;;;90.47;55.57;;;;;;;;;;6276318;22;20303;-68
2023/01/08 05:43:00;;;;;;;94.47;55.43;;;;;;;;;;6276001;22;20006;-67
2023/01/08 05:45:26;;;;;;;94.07;56.13;;;;;;;;;;6277838;22;20466;-68
2023/01/08 05:47:52;;;;;;;92.73;56.53;;;;;;;;;;6278258;22;20005;-67
2023/01/08 05:50:18;;;;;;;89.27;54.97;;;;;;;;;;6278103;22;20003;-67
2023/01/08 05:52:44;;;;;;;91.37;54.40;;;;;;;;;;6278426;22;20004;-67
2023/01/08 05:55:10;;;;;;;91.30;53.50;;;;;;;;;;6278160;22;20049;-67
2023/01/08 05:57:37;;;;;;;88.53;54.27;;;;;;;;;;6278144;22;20057;-67
2023/01/08 06:00:04;;;;;;;87.73;55.33;;;;;;;;;;6277929;22;20034;-67
2023/01/08 06:02:30;;;;;;;84.07;52.00;;;;;;;;;;6278254;22;20330;-67
2023/01/08 06:04:56;;;;;;;85.63;53.83;;;;;;;;;;6278145;22;20099;-67
2023/01/08 06:07:22;;;;;;;88.33;53.97;;;;;;;;;;6277906;22;20030;-67
2023/01/08 06:09:48;;;;;;;88.63;54.57;;;;;;;;;;6277807;22;20003;-67
2023/01/08 06:12:14;;;;;;;88.57;54.07;;;;;;;;;;6278101;22;20349;-67
2023/01/08 06:14:41;;;;;;;93.57;56.33;;;;;;;;;;6277981;22;20004;-67
2023/01/08 06:17:07;;;;;;;90.30;55.10;;;;;;;;;;6277649;22;20479;-67
2023/01/08 06:19:33;;;;;;;87.23;55.67;;;;;;;;;;6277742;22;19996;-68
2023/01/08 06:21:59;;;;;;;90.87;55.30;;;;;;;;;;6277671;22;20435;-67
2023/01/08 06:24:25;;;;;;;88.97;54.27;;;;;;;;;;6277672;22;20012;-67
2023/01/08 06:26:51;;;;;;;85.07;54.43;;;;;;;;;;6277622;22;20006;-67
2023/01/08 06:29:17;;;;;;;92.13;54.57;;;;;;;;;;6277490;22;20022;-67
2023/01/08 06:31:43;;;;;;;81.97;51.73;;;;;;;;;;6277840;22;20000;-67
2023/01/08 06:34:09;;;;;;;88.97;54.50;;;;;;;;;;6277594;22;20010;-67
2023/01/08 06:36:35;;;;;;;94.30;54.37;;;;;;;;;;6277663;22;19996;-67
2023/01/08 06:39:01;;;;;;;93.20;55.77;;;;;;;;;;6277281;22;20053;-67
2023/01/08 06:41:27;;;;;;;92.00;55.93;;;;;;;;;;6277612;22;19999;-67
2023/01/08 06:43:53;;;;;;;88.73;54.97;;;;;;;;;;6277518;22;20003;-67
2023/01/08 06:46:19;;;;;;;91.67;55.57;;;;;;;;;;6277659;22;20074;-67
2023/01/08 06:48:45;;;;;;;91.70;52.80;;;;;;;;;;6277728;22;20023;-67
2023/01/08 06:51:11;;;;;;;85.80;54.50;;;;;;;;;;6277746;22;20003;-68
2023/01/08 06:53:37;;;;;;;103.23;55.53;;;;;;;;;;6277430;22;20488;-67
2023/01/08 06:56:03;;;;;;;87.13;53.83;;;;;;;;;;6277142;22;20524;-67
2023/01/08 06:58:29;;;;;;;85.90;53.23;;;;;;;;;;6277323;22;20003;-68
2023/01/08 07:00:57;;;;;;;89.40;55.07;;;;;;;;;;6277604;22;19995;-68
2023/01/08 07:03:24;;;;;;;89.20;53.50;;;;;;;;;;6277287;22;20004;-67
2023/01/08 07:05:50;;;;;;;82.33;52.70;;;;;;;;;;6277108;22;20019;-67
2023/01/08 07:08:16;;;;;;;88.03;55.77;;;;;;;;;;6277212;22;20324;-68
2023/01/08 07:10:43;;;;;;;90.60;56.57;;;;;;;;;;6277293;22;20458;-68
2023/01/08 07:13:11;;;;;;;88.03;55.87;;;;;;;;;;6277027;22;20434;-67
2023/01/08 07:15:37;;;;;;;89.43;54.73;;;;;;;;;;6277340;22;20003;-67
2023/01/08 07:18:07;;;;;;;90.63;56.73;;;;;;;;;;6277078;22;20003;-67
2023/01/08 07:20:34;;;;;;;87.43;54.40;;;;;;;;;;6277075;22;20004;-68
2023/01/08 07:23:00;;;;;;;82.97;53.30;;;;;;;;;;6276873;22;20000;-67
2023/01/08 07:25:26;;;;;;;92.17;56.03;;;;;;;;;;6275119;22;20054;31
2023/01/08 07:27:52;;;;;;;89.70;54.93;;;;;;;;;;6220152;23;20099;-74
2023/01/08 07:30:19;;;;;;;89.00;56.60;;;;;;;;;;6246510;23;20011;-74
2023/01/08 07:32:45;;;;;;;89.47;53.57;;;;;;;;;;6246152;23;20004;-74
2023/01/08 07:35:11;;;;;;;89.20;55.27;;;;;;;;;;6220068;23;20446;-74
2023/01/08 07:37:40;;;;;;;98.07;55.53;;;;;;;;;;6246220;23;20004;-74
2023/01/08 07:40:08;;;;;;;93.80;59.47;;;;;;;;;;6246704;23;20024;-74
2023/01/08 07:42:34;;;;;;;95.17;59.03;;;;;;;;;;6246313;23;19999;-74
2023/01/08 07:45:00;;;;;;;88.33;55.30;;;;;;;;;;6245934;23;20012;-75
2023/01/08 07:47:27;;;;;;;90.97;56.87;;;;;;;;;;6247204;23;20024;-74
2023/01/08 07:49:53;;;;;;;91.13;55.57;;;;;;;;;;6247165;23;20150;-75
2023/01/08 07:52:19;;;;;;;86.80;55.20;;;;;;;;;;6219905;23;20127;-74
2023/01/08 07:54:50;;;;;;;91.70;56.03;;;;;;;;;;6246788;23;19996;-74
2023/01/08 08:03:34;;;;;;;85.80;53.42;;;;;;;;;;6154634;23;20012;-74
2023/01/08 08:06:52;;;;;;;89.00;56.77;;;;;;;;;;6241180;23;20043;-75
2023/01/08 08:09:19;;;;;;;93.37;54.43;;;;;;;;;;6234060;23;20031;-75
2023/01/08 08:11:55;;;;;;;92.97;55.90;;;;;;;;;;6244682;23;20011;-75
2023/01/08 08:14:38;;;;;;;93.83;56.87;;;;;;;;;;6245253;23;20331;-75
2023/01/08 08:17:13;;;;;;;;;;;;;;;;;;6246744;23;20046;-75
2023/01/08 08:20:01;;;;;;;92.07;55.40;;;;;;;;;;6243464;23;19907;-73
2023/01/08 08:25:35;;;;;;;95.10;55.57;;;;;;;;;;6149418;23;20060;-79
2023/01/08 08:28:02;;;;;;;92.03;56.50;;;;;;;;;;6213598;23;20372;-73
2023/01/08 08:30:30;;;;;;;91.10;54.93;;;;;;;;;;6215988;23;20316;-79
2023/01/08 08:32:58;;;;;;;85.70;53.60;;;;;;;;;;6189171;23;20327;-82
2023/01/08 08:35:24;;;;;;;93.50;54.13;;;;;;;;;;6215290;23;20066;-82
2023/01/08 08:37:50;;;;;;;91.53;54.40;;;;;;;;;;6189053;23;20323;-75
2023/01/08 08:40:16;;;;;;;87.80;53.83;;;;;;;;;;6215569;23;20428;-75
2023/01/08 08:42:42;;;;;;;82.60;49.40;;;;;;;;;;6215446;23;20071;-75
2023/01/08 08:45:08;;;;;;;81.93;48.67;;;;;;;;;;6188914;23;20342;-79
2023/01/08 08:47:34;;;;;;;78.20;46.97;;;;;;;;;;6215481;23;20010;-78
2023/01/08 08:50:01;;;;;;;80.47;45.47;;;;;;;;;;6212582;23;20011;-77
2023/01/08 08:52:27;;;;;;;76.97;44.17;;;;;;;;;;6212286;23;20439;-75
2023/01/08 08:54:53;;;;;;;78.83;43.17;;;;;;;;;;6211748;23;20328;-74
2023/01/08 08:57:19;;;;;;;73.83;43.13;;;;;;;;;;6212330;23;20001;-74
2023/01/08 08:59:45;;;;;;;73.40;42.37;;;;;;;;;;6212804;23;19996;-74
2023/01/08 09:02:11;;;;;;;79.27;44.27;;;;;;;;;;6213124;23;20024;-74
2023/01/08 09:04:37;;;;;;;77.07;43.87;;;;;;;;;;6213728;23;20023;-74
2023/01/08 09:07:03;;;;;;;83.23;44.40;;;;;;;;;;6215218;23;20363;-75
2023/01/08 09:09:30;;;;;;;81.90;46.50;;;;;;;;;;6215018;23;20004;-74
2023/01/08 09:11:56;;;;;;;81.90;48.50;;;;;;;;;;6188746;23;20012;-74
2023/01/08 09:14:22;;;;;;;90.30;49.77;;;;;;;;;;6215260;23;20000;-74
2023/01/08 09:16:48;;;;;;;89.40;48.37;;;;;;;;;;6188807;23;20035;-73
2023/01/08 09:19:15;;;;;;;81.37;46.97;;;;;;;;;;6215242;23;20001;-74
2023/01/08 09:21:41;;;;;;;76.90;43.83;;;;;;;;;;6215231;23;20055;-74
2023/01/08 09:24:07;;;;;;;79.97;44.23;;;;;;;;;;6214886;23;20494;-74
2023/01/08 09:26:33;;;;;;;73.50;43.27;;;;;;;;;;6200929;23;20443;-74
2023/01/08 09:28:59;;;;;;;72.00;41.97;;;;;;;;;;6245592;23;20027;-74
2023/01/08 09:31:26;;;;;;;74.10;41.47;;;;;;;;;;6245578;23;20010;-73
2023/01/08 09:33:52;;;;;;;79.70;42.27;;;;;;;;;;6243772;23;20031;-74
2023/01/08 09:36:18;;;;;;;76.43;45.37;;;;;;;;;;6242942;23;20088;-73
2023/01/08 09:38:45;;;;;;;77.30;43.67;;;;;;;;;;6244476;23;20004;-74
2023/01/08 09:41:21;;;;;;;78.10;45.53;;;;;;;;;;6244800;23;20008;-74
2023/01/08 09:43:48;;;;;;;75.63;44.63;;;;;;;;;;6245957;23;20004;-74
2023/01/08 09:52:35;;;;;;;76.67;45.40;;;;;;;;;;6246204;23;20059;-74
2023/01/08 09:55:39;;;;;;;71.63;43.47;;;;;;;;;;6246048;23;20319;-74
2023/01/08 10:01:33;;;;;;;76.13;43.92;;;;;;;;;;6148822;23;19940;-73
2023/01/08 10:04:36;;;;;;;82.73;45.63;;;;;;;;;;6240243;23;20012;-73
2023/01/08 10:07:25;;;;;;;79.40;46.90;;;;;;;;;;6245315;23;20370;-74
2023/01/08 10:09:55;;;;;;;80.33;46.23;;;;;;;;;;6228481;23;20704;-73
2023/01/08 10:12:34;;;;;;;78.67;44.33;;;;;;;;;;6244635;23;20070;-73
2023/01/08 10:15:05;;;;;;;79.47;44.53;;;;;;;;;;6245092;23;20326;-73
2023/01/08 10:17:39;;;;;;;78.10;43.87;;;;;;;;;;6244231;23;20059;-73
2023/01/08 10:20:19;;;;;;;75.27;44.50;;;;;;;;;;6244637;23;20008;-73
2023/01/08 10:22:46;;;;;;;73.20;43.73;;;;;;;;;;6245023;23;20000;-73
2023/01/08 10:25:15;;;;;;;80.97;45.73;;;;;;;;;;6244565;23;20012;-73
2023/01/08 10:27:46;;;;;;;72.10;43.87;;;;;;;;;;6217138;23;20017;-73
2023/01/08 10:30:15;;;;;;;84.53;46.43;;;;;;;;;;6214045;23;20001;-74
2023/01/08 10:32:46;;;;;;;95.63;49.57;;;;;;;;;;6215895;23;20008;-74
2023/01/08 10:35:15;;;;;;;79.90;46.23;;;;;;;;;;6214602;23;20104;-73
2023/01/08 10:37:42;;;;;;;77.77;45.03;;;;;;;;;;6216832;23;20001;-73
2023/01/08 10:40:30;;;;;;;77.17;46.67;;;;;;;;;;6216994;23;20088;-73
2023/01/08 10:42:58;;;;;;;79.70;45.50;;;;;;;;;;6188356;23;20083;-73
2023/01/08 10:45:27;;;;;;;77.63;44.50;;;;;;;;;;6186339;23;20103;-73
2023/01/08 10:47:56;;;;;;;78.00;45.53;;;;;;;;;;6213803;23;20060;-73
2023/01/08 10:50:25;;;;;;;78.30;46.37;;;;;;;;;;6216483;23;20007;-73
2023/01/08 10:52:55;;;;;;;82.43;48.20;;;;;;;;;;6216737;23;20004;-75
2023/01/08 10:55:34;;;;;;;85.33;46.67;;;;;;;;;;6216325;23;20007;-73
2023/01/08 10:58:02;;;;;;;79.33;46.77;;;;;;;;;;6216451;23;20032;-73
2023/01/08 11:00:28;;;;;;;78.43;43.90;;;;;;;;;;6215827;23;20011;-74
2023/01/08 11:02:55;;;;;;;80.60;47.60;;;;;;;;;;6216487;23;20328;-75
2023/01/08 11:05:29;;;;;;;79.77;46.53;;;;;;;;;;6216565;23;20016;-75
2023/01/08 11:07:56;;;;;;;86.97;50.47;;;;;;;;;;6214630;23;20011;-74
2023/01/08 11:10:24;;;;;;;84.63;47.70;;;;;;;;;;6212646;23;20009;-74
2023/01/08 11:12:54;;;;;;;92.77;51.83;;;;;;;;;;6213022;23;20001;-74
2023/01/08 11:15:20;;;;;;;83.83;46.83;;;;;;;;;;6215045;23;20029;-74
2023/01/08 11:17:46;;;;;;;89.37;53.17;;;;;;;;;;6216329;23;20424;-76
2023/01/08 11:20:20;;;;;;;80.47;46.80;;;;;;;;;;6216146;23;20005;-76
2023/01/08 11:22:47;;;;;;;76.07;46.00;;;;;;;;;;6189660;23;20001;-76
2023/01/08 11:25:14;;;;;;;78.90;46.80;;;;;;;;;;6216969;23;20063;-74
2023/01/08 11:27:42;;;;;;;79.30;46.87;;;;;;;;;;6216775;23;20012;-76
2023/01/08 11:30:12;;;;;;;81.23;45.43;;;;;;;;;;6216598;23;20328;-73
2023/01/08 11:36:40;;;;;;;78.18;46.88;;;;;;;;;;6095018;23;20088;-73
2023/01/08 11:42:30;;;;;;;82.67;48.27;;;;;;;;;;5974798;24;20079;-73
2023/01/08 11:45:02;;;;;;;80.15;46.22;;;;;;;;;;6062522;23;20054;-73
2023/01/08 11:51:05;;;;;;;84.40;45.70;;;;;;;;;;5980800;24;20023;-73
2023/01/08 11:53:51;;;;;;;74.57;44.47;;;;;;;;;;5998538;23;20011;-73
2023/01/08 11:56:40;;;;;;;80.47;46.07;;;;;;;;;;6179402;23;20119;-73
2023/01/08 11:59:15;;;;;;;82.13;48.53;;;;;;;;;;6215663;23;20001;-72
2023/01/08 12:01:57;;;;;;;93.67;50.83;;;;;;;;;;6188873;23;20343;-74
2023/01/08 12:04:29;;;;;;;87.00;49.33;;;;;;;;;;6215254;23;20309;-71
2023/01/08 12:07:11;;;;;;;83.18;50.03;;;;;;;;;;6215437;23;20372;-72
2023/01/08 12:09:47;;;;;;;86.93;50.23;;;;;;;;;;6215362;23;20320;-76
2023/01/08 12:12:18;;;;;;;85.60;48.43;;;;;;;;;;6215525;23;20390;-74
2023/01/08 12:14:51;;;;;;;84.70;48.83;;;;;;;;;;6215425;23;20364;-74
2023/01/08 12:17:29;;;;;;;85.70;47.17;;;;;;;;;;6189131;23;20351;-74
2023/01/08 12:20:04;;;;;;;86.73;47.53;;;;;;;;;;6189149;23;20331;-73
2023/01/08 12:22:38;;;;;;;84.93;46.47;;;;;;;;;;6215513;23;20056;-73
2023/01/08 12:25:19;;;;;;;83.63;46.13;;;;;;;;;;6215276;23;20395;-73
2023/01/08 12:27:45;;;;;;;89.17;48.20;;;;;;;;;;6242435;23;20830;-74
2023/01/08 12:30:44;;;;;;;84.53;46.37;;;;;;;;;;6218842;23;20422;-74
2023/01/08 12:33:18;;;;;;;86.20;49.17;;;;;;;;;;6195091;23;20419;-73
2023/01/08 12:35:46;;;;;;;82.97;47.67;;;;;;;;;;6245563;23;20004;-74
2023/01/08 12:38:13;;;;;;;79.63;47.43;;;;;;;;;;6245377;23;20330;-75
2023/01/08 12:40:43;;;;;;;88.77;51.43;;;;;;;;;;6245844;23;20050;-74
2023/01/08 12:43:15;;;;;;;85.67;49.40;;;;;;;;;;6245752;23;20008;-76
2023/01/08 12:45:45;;;;;;;90.57;51.25;;;;;;;;;;6245596;23;20412;-74
2023/01/08 12:48:16;;;;;;;201.67;141.93;;;;;;;;;;6245624;23;20005;-74
2023/01/08 12:51:01;;;;;;;93.83;55.33;;;;;;;;;;6245817;23;20000;-75
2023/01/08 12:53:37;;;;;;;89.20;50.77;;;;;;;;;;6218181;23;20343;-74
2023/01/08 12:56:03;;;;;;;90.70;52.13;;;;;;;;;;6245070;23;20058;-73
2023/01/08 12:58:32;;;;;;;88.60;52.87;;;;;;;;;;6245386;23;20133;-74
2023/01/08 13:01:25;;;;;;;177.20;112.10;;;;;;;;;;6245922;23;20000;-74
2023/01/08 13:03:51;;;;;;;107.70;65.05;;;;;;;;;;6245881;23;19996;-74
2023/01/08 13:06:19;;;;;;;101.33;54.63;;;;;;;;;;6245588;23;20082;-74
2023/01/08 13:08:50;;;;;;;86.33;51.27;;;;;;;;;;6245997;23;20036;-75
2023/01/08 13:11:52;;;;;;;86.47;49.13;;;;;;;;;;6245835;23;20091;-72
2023/01/08 13:20:54;;;;;;;87.85;49.85;;;;;;;;;;6037270;23;20055;-72
2023/01/08 13:26:49;;;;;;;84.37;50.20;;;;;;;;;;5979732;24;20056;-73
2023/01/08 13:29:34;;;;;;;86.80;49.43;;;;;;;;;;6077992;23;20090;-73
2023/01/08 13:32:31;;;;;;;90.57;51.73;;;;;;;;;;6185188;23;20063;-72
2023/01/08 13:35:03;;;;;;;96.77;50.93;;;;;;;;;;6215002;23;20028;-72
2023/01/08 13:37:29;;;;;;;86.28;49.85;;;;;;;;;;6215362;23;20001;-72
2023/01/08 13:39:55;;;;;;;88.27;50.10;;;;;;;;;;6215191;23;20020;-72
2023/01/08 13:42:30;;;;;;;83.40;48.70;;;;;;;;;;6214999;23;20422;-73
2023/01/08 13:45:01;;;;;;;79.80;46.13;;;;;;;;;;6214882;23;20040;-72
2023/01/08 13:47:30;;;;;;;82.57;48.00;;;;;;;;;;6214943;23;20312;-72
2023/01/08 13:49:57;;;;;;;86.90;48.20;;;;;;;;;;6214780;23;20005;-71
2023/01/08 13:52:26;;;;;;;87.33;50.07;;;;;;;;;;6212931;23;20328;-72
2023/01/08 13:54:52;;;;;;;86.40;46.57;;;;;;;;;;6214402;23;20498;-72
2023/01/08 13:57:19;;;;;;;79.10;44.70;;;;;;;;;;6214768;23;20427;-72
2023/01/08 13:59:51;;;;;;;83.67;47.13;;;;;;;;;;6214765;23;20007;-72
2023/01/08 14:02:21;;;;;;;88.07;46.58;;;;;;;;;;6214868;23;20319;-72
2023/01/08 14:04:48;;;;;;;78.67;46.33;;;;;;;;;;6215281;23;20013;-71
2023/01/08 14:07:15;;;;;;;86.10;47.33;;;;;;;;;;6216970;23;20029;-72
2023/01/08 14:09:41;;;;;;;91.43;49.10;;;;;;;;;;6215109;23;20009;-72
2023/01/08 14:12:10;;;;;;;91.83;49.50;;;;;;;;;;6216886;23;20455;-72
2023/01/08 14:14:38;;;;;;;85.90;48.03;;;;;;;;;;6216856;23;20011;-72
2023/01/08 14:17:04;;;;;;;87.27;48.20;;;;;;;;;;6216716;23;20007;-72
2023/01/08 14:19:31;;;;;;;85.97;45.33;;;;;;;;;;6215371;23;20051;-72
2023/01/08 14:21:57;;;;;;;87.37;47.57;;;;;;;;;;6216683;23;20491;-72
2023/01/08 14:24:24;;;;;;;84.67;46.30;;;;;;;;;;6217020;23;20420;-72
2023/01/08 14:26:52;;;;;;;82.00;44.63;;;;;;;;;;6217473;23;20009;-73
2023/01/08 14:29:23;;;;;;;83.03;46.37;;;;;;;;;;6217564;23;20028;-72
2023/01/08 14:31:51;;;;;;;86.43;47.63;;;;;;;;;;6217321;23;20055;-72
2023/01/08 14:34:18;;;;;;;89.77;47.27;;;;;;;;;;6217340;23;20005;-76
2023/01/08 14:36:54;;;;;;;86.33;49.40;;;;;;;;;;6216950;23;20012;-72
2023/01/08 14:39:27;;;;;;;89.43;49.00;;;;;;;;;;6216938;23;19997;-72
2023/01/08 14:48:23;;;;;;;77.13;44.13;;;;;;;;;;6095586;23;20438;-73
2023/01/08 14:51:17;;;;;;;76.53;42.83;;;;;;;;;;6095671;23;20009;-74
2023/01/08 14:53:58;;;;;;;80.07;43.00;;;;;;;;;;6148002;23;20092;-74
2023/01/08 14:56:27;;;;;;;90.10;48.23;;;;;;;;;;6154084;23;20356;-81
2023/01/08 14:58:54;;;;;;;79.07;42.67;;;;;;;;;;6154528;23;20001;-71
2023/01/08 15:01:23;;;;;;;81.10;43.27;;;;;;;;;;6154300;23;20060;-74
2023/01/08 15:03:50;;;;;;;83.20;46.27;;;;;;;;;;6210973;23;20000;-70
2023/01/08 15:06:26;;;;;;;80.10;44.27;;;;;;;;;;6216295;23;20009;-70
2023/01/08 15:08:52;;;;;;;82.33;45.33;;;;;;;;;;6214548;23;20335;-70
2023/01/08 15:11:18;;;;;;;77.07;41.73;;;;;;;;;;6216440;23;20297;-70
2023/01/08 15:13:49;;;;;;;76.43;42.73;;;;;;;;;;6216557;23;20007;-70